createdAt,value
2019-03-17T00:01:43.874Z,4.41
2019-03-17T00:03:47.607Z,4.37
2019-03-17T00:05:51.314Z,4.36
2019-03-17T00:07:55.119Z,4.33
2019-03-17T00:09:58.812Z,4.31
2019-03-17T00:12:02.587Z,4.30
2019-03-17T00:14:06.314Z,4.30
2019-03-17T00:16:10.076Z,4.28
2019-03-17T00:18:13.836Z,4.28
2019-03-17T00:20:17.532Z,4.37
2019-03-17T00:22:21.244Z,4.53
2019-03-17T00:24:25.112Z,4.74
2019-03-17T00:26:28.877Z,4.90
2019-03-17T00:28:32.711Z,4.98
2019-03-17T00:30:36.485Z,5.04
2019-03-17T00:32:40.207Z,5.09
2019-03-17T00:34:44.683Z,5.11
2019-03-17T00:36:48.350Z,5.12
2019-03-17T00:38:52.107Z,5.11
2019-03-17T00:40:55.828Z,5.16
2019-03-17T00:42:59.610Z,5.16
2019-03-17T00:45:03.538Z,5.17
2019-03-17T00:47:07.234Z,5.20
2019-03-17T00:49:10.974Z,5.20
2019-03-17T00:51:14.688Z,5.22
2019-03-17T00:53:18.393Z,5.22
2019-03-17T00:55:22.138Z,5.22
2019-03-17T00:57:25.836Z,5.22
2019-03-17T00:59:29.562Z,5.21
2019-03-17T01:01:33.259Z,5.21
2019-03-17T01:03:37.046Z,5.26
2019-03-17T01:05:40.774Z,5.29
2019-03-17T01:07:44.469Z,5.27
2019-03-17T01:09:48.315Z,5.29
2019-03-17T01:11:52.020Z,5.28
2019-03-17T01:13:55.758Z,5.29
2019-03-17T01:15:59.464Z,5.30
2019-03-17T01:18:03.499Z,5.30
2019-03-17T01:20:07.566Z,5.29
2019-03-17T01:22:11.327Z,5.29
2019-03-17T01:24:15.009Z,5.29
2019-03-17T01:26:18.705Z,5.29
2019-03-17T01:28:22.426Z,5.29
2019-03-17T01:30:26.269Z,5.30
2019-03-17T01:32:29.965Z,5.28
2019-03-17T01:34:33.711Z,5.29
2019-03-17T01:36:37.419Z,5.31
2019-03-17T01:38:41.117Z,5.27
2019-03-17T01:40:45.167Z,5.25
2019-03-17T01:42:48.912Z,5.24
2019-03-17T01:44:52.718Z,5.23
2019-03-17T01:46:56.419Z,5.21
2019-03-17T01:49:00.138Z,5.20
2019-03-17T01:51:04.047Z,5.20
2019-03-17T01:53:07.800Z,5.23
2019-03-17T01:55:11.581Z,5.24
2019-03-17T01:57:15.312Z,5.22
2019-03-17T01:59:19.089Z,5.20
2019-03-17T02:01:22.791Z,5.16
2019-03-17T02:03:26.518Z,5.13
2019-03-17T02:05:30.221Z,5.12
2019-03-17T02:07:33.952Z,5.10
2019-03-17T02:09:37.654Z,5.04
2019-03-17T02:11:41.366Z,4.97
2019-03-17T02:13:45.130Z,4.90
2019-03-17T02:15:48.839Z,4.83
2019-03-17T02:17:52.725Z,4.80
2019-03-17T02:19:56.421Z,4.76
2019-03-17T02:22:00.193Z,4.72
2019-03-17T02:24:04.106Z,4.70
2019-03-17T02:26:07.946Z,4.70
2019-03-17T02:28:11.675Z,4.69
2019-03-17T02:30:15.892Z,4.65
2019-03-17T02:32:19.579Z,4.63
2019-03-17T02:34:23.321Z,4.57
2019-03-17T02:36:27.018Z,4.46
2019-03-17T02:38:30.927Z,4.40
2019-03-17T02:40:34.658Z,4.37
2019-03-17T02:42:38.369Z,4.31
2019-03-17T02:44:42.089Z,4.25
2019-03-17T02:46:45.825Z,4.18
2019-03-17T02:48:49.554Z,4.13
2019-03-17T02:50:53.334Z,4.07
2019-03-17T02:52:57.038Z,4.04
2019-03-17T02:55:00.774Z,3.97
2019-03-17T02:57:04.556Z,3.92
2019-03-17T02:59:08.285Z,3.86
2019-03-17T03:01:12.027Z,3.82
2019-03-17T03:03:15.750Z,3.77
2019-03-17T03:05:19.535Z,3.75
2019-03-17T03:07:23.250Z,3.71
2019-03-17T03:09:27.072Z,3.74
2019-03-17T03:11:30.808Z,3.79
2019-03-17T03:13:34.539Z,3.81
2019-03-17T03:15:38.247Z,3.87
2019-03-17T03:17:42.039Z,3.94
2019-03-17T03:19:45.771Z,3.95
2019-03-17T03:21:49.480Z,3.97
2019-03-17T03:23:53.223Z,4.04
2019-03-17T03:25:56.935Z,4.10
2019-03-17T03:28:00.639Z,4.20
2019-03-17T03:30:04.916Z,4.29
2019-03-17T03:32:08.650Z,4.35
2019-03-17T03:34:12.388Z,4.38
2019-03-17T03:36:16.085Z,4.38
2019-03-17T03:38:19.796Z,4.38
2019-03-17T03:40:23.625Z,4.36
2019-03-17T03:42:27.317Z,4.38
2019-03-17T03:44:31.044Z,4.42
2019-03-17T03:46:34.767Z,4.44
2019-03-17T03:48:38.612Z,4.47
2019-03-17T03:50:42.415Z,4.48
2019-03-17T03:52:46.195Z,4.52
2019-03-17T03:54:49.933Z,4.49
2019-03-17T03:56:53.717Z,4.50
2019-03-17T03:58:57.515Z,4.50
2019-03-17T04:01:01.236Z,4.53
2019-03-17T04:03:04.935Z,4.53
2019-03-17T04:05:08.800Z,4.49
2019-03-17T04:07:12.520Z,4.48
2019-03-17T04:09:16.239Z,4.45
2019-03-17T04:11:19.953Z,4.39
2019-03-17T04:13:23.669Z,4.35
2019-03-17T04:15:27.429Z,4.35
2019-03-17T04:17:31.213Z,4.30
2019-03-17T04:19:34.941Z,4.26
2019-03-17T04:21:38.683Z,4.21
2019-03-17T04:23:42.394Z,4.18
2019-03-17T04:25:46.138Z,4.19
2019-03-17T04:27:49.847Z,4.15
2019-03-17T04:29:53.579Z,4.09
2019-03-17T04:31:57.280Z,4.09
2019-03-17T04:34:00.997Z,4.13
2019-03-17T04:36:05.010Z,4.18
2019-03-17T04:38:08.831Z,4.17
2019-03-17T04:40:12.647Z,4.18
2019-03-17T04:42:16.363Z,4.14
2019-03-17T04:44:21.218Z,4.07
2019-03-17T04:46:24.971Z,4.03
2019-03-17T04:48:28.679Z,3.99
2019-03-17T04:50:32.549Z,3.95
2019-03-17T04:52:36.233Z,3.94
2019-03-17T04:54:39.951Z,3.91
2019-03-17T04:56:43.659Z,3.93
2019-03-17T04:58:47.369Z,3.94
2019-03-17T05:00:51.100Z,3.88
2019-03-17T05:02:54.956Z,3.84
2019-03-17T05:04:58.701Z,3.77
2019-03-17T05:07:02.514Z,3.71
2019-03-17T05:09:07.528Z,3.66
2019-03-17T05:11:11.287Z,3.63
2019-03-17T05:13:14.997Z,3.66
2019-03-17T05:15:18.723Z,3.72
2019-03-17T05:17:22.459Z,3.78
2019-03-17T05:19:26.170Z,3.77
2019-03-17T05:21:30.005Z,3.76
2019-03-17T05:23:33.723Z,3.80
2019-03-17T05:25:37.575Z,3.87
2019-03-17T05:27:41.295Z,3.89
2019-03-17T05:29:45.001Z,3.94
2019-03-17T05:31:48.847Z,3.97
2019-03-17T05:33:52.544Z,3.97
2019-03-17T05:35:56.281Z,3.95
2019-03-17T05:37:59.982Z,3.96
2019-03-17T05:40:03.701Z,4.00
2019-03-17T05:42:07.442Z,4.01
2019-03-17T05:44:11.232Z,4.02
2019-03-17T05:46:15.071Z,3.99
2019-03-17T05:48:18.773Z,3.97
2019-03-17T05:50:22.549Z,4.01
2019-03-17T05:52:26.265Z,4.01
2019-03-17T05:54:29.973Z,4.03
2019-03-17T05:56:33.713Z,4.14
2019-03-17T05:58:37.426Z,4.19
2019-03-17T06:00:41.272Z,4.25
2019-03-17T06:02:44.979Z,4.32
2019-03-17T06:04:48.686Z,4.38
2019-03-17T06:06:52.427Z,4.46
2019-03-17T06:08:56.121Z,4.58
2019-03-17T06:10:59.982Z,4.75
2019-03-17T06:13:03.759Z,4.88
2019-03-17T06:15:08.465Z,5.02
2019-03-17T06:17:12.195Z,5.10
2019-03-17T06:19:15.891Z,5.16
2019-03-17T06:21:19.623Z,5.26
2019-03-17T06:23:23.359Z,5.34
2019-03-17T06:25:27.098Z,5.43
2019-03-17T06:27:30.799Z,5.53
2019-03-17T06:29:34.515Z,5.66
2019-03-17T06:31:38.499Z,5.75
2019-03-17T06:33:42.203Z,5.88
2019-03-17T06:35:45.923Z,6.00
2019-03-17T06:37:49.624Z,6.12
2019-03-17T06:39:53.325Z,6.35
2019-03-17T06:41:57.159Z,6.68
2019-03-17T06:44:00.873Z,7.09
2019-03-17T06:46:04.671Z,7.51
2019-03-17T06:48:08.375Z,8.25
2019-03-17T06:50:12.262Z,9.40
2019-03-17T06:52:16.004Z,10.82
2019-03-17T06:54:19.712Z,11.83
2019-03-17T06:56:23.466Z,12.33
2019-03-17T06:58:27.188Z,11.49
2019-03-17T07:00:30.909Z,10.66
2019-03-17T07:02:34.640Z,10.25
2019-03-17T07:04:38.377Z,10.09
2019-03-17T07:06:42.217Z,9.95
2019-03-17T07:08:45.929Z,9.96
2019-03-17T07:10:49.851Z,10.03
2019-03-17T07:12:53.568Z,10.01
2019-03-17T07:14:57.288Z,9.99
2019-03-17T07:17:01.029Z,10.00
2019-03-17T07:19:04.827Z,10.22
2019-03-17T07:21:08.815Z,10.40
2019-03-17T07:23:12.524Z,10.32
2019-03-17T07:25:16.237Z,10.32
2019-03-17T07:27:20.068Z,10.80
2019-03-17T07:29:23.848Z,11.70
2019-03-17T07:31:27.588Z,12.14
2019-03-17T07:33:31.324Z,11.86
2019-03-17T07:35:35.094Z,11.48
2019-03-17T07:37:38.848Z,11.15
2019-03-17T07:39:42.549Z,10.84
2019-03-17T07:41:46.389Z,10.82
2019-03-17T07:43:50.088Z,11.34
2019-03-17T07:45:53.804Z,11.81
2019-03-17T07:47:57.540Z,12.12
2019-03-17T07:50:01.388Z,13.40
2019-03-17T07:52:05.301Z,14.92
2019-03-17T07:54:08.996Z,16.04
2019-03-17T07:56:12.698Z,16.77
2019-03-17T07:58:16.426Z,16.69
2019-03-17T08:00:31.235Z,15.96
2019-03-17T08:02:26.011Z,15.66
2019-03-17T08:04:41.648Z,15.56
2019-03-17T08:06:35.387Z,15.11
2019-03-17T08:08:39.191Z,14.20
2019-03-17T08:10:42.955Z,13.81
2019-03-17T08:12:46.687Z,13.81
2019-03-17T08:14:50.397Z,13.69
2019-03-17T08:16:54.199Z,13.65
2019-03-17T08:18:57.913Z,13.57
2019-03-17T08:21:01.624Z,13.48
2019-03-17T08:23:05.470Z,13.44
2019-03-17T08:25:09.367Z,13.83
2019-03-17T08:27:13.170Z,14.24
2019-03-17T08:29:16.867Z,14.63
2019-03-17T08:31:20.589Z,14.97
2019-03-17T08:33:24.334Z,15.11
2019-03-17T08:35:28.052Z,15.18
2019-03-17T08:37:31.792Z,15.40
2019-03-17T08:39:35.496Z,16.06
2019-03-17T08:41:39.196Z,16.75
2019-03-17T08:43:53.813Z,17.54
2019-03-17T08:45:48.457Z,18.65
2019-03-17T08:47:57.734Z,19.54
2019-03-17T08:49:57.832Z,19.70
2019-03-17T08:52:01.689Z,19.85
2019-03-17T08:54:05.480Z,19.94
2019-03-17T08:56:09.194Z,20.17
2019-03-17T08:58:12.937Z,20.53
2019-03-17T09:00:18.538Z,21.07
2019-03-17T09:02:22.955Z,21.10
2019-03-17T09:04:26.677Z,20.97
2019-03-17T09:06:30.392Z,20.83
2019-03-17T09:08:35.574Z,20.73
2019-03-17T09:10:39.382Z,20.95
2019-03-17T09:12:43.372Z,20.92
2019-03-17T09:14:47.105Z,21.07
2019-03-17T09:16:50.824Z,21.10
2019-03-17T09:18:54.576Z,21.21
2019-03-17T09:20:58.285Z,21.24
2019-03-17T09:23:02.036Z,21.43
2019-03-17T09:25:06.104Z,21.61
2019-03-17T09:27:09.815Z,21.49
2019-03-17T09:29:13.565Z,21.35
2019-03-17T09:31:17.443Z,21.08
2019-03-17T09:33:21.392Z,20.99
2019-03-17T09:35:25.215Z,21.17
2019-03-17T09:37:28.928Z,21.36
2019-03-17T09:39:32.657Z,21.67
2019-03-17T09:41:36.397Z,21.85
2019-03-17T09:43:40.145Z,21.89
2019-03-17T09:45:43.926Z,22.03
2019-03-17T09:47:47.685Z,22.25
2019-03-17T09:49:51.499Z,22.47
2019-03-17T09:51:55.286Z,22.78
2019-03-17T09:53:59.030Z,23.05
2019-03-17T09:56:02.743Z,23.38
2019-03-17T09:58:06.470Z,23.62
2019-03-17T10:00:11.899Z,23.55
2019-03-17T10:02:15.622Z,23.40
2019-03-17T10:04:19.551Z,23.69
2019-03-17T10:06:23.305Z,23.98
2019-03-17T10:08:27.045Z,24.48
2019-03-17T10:10:30.758Z,24.76
2019-03-17T10:12:34.474Z,24.77
2019-03-17T10:14:38.315Z,24.80
2019-03-17T10:16:42.026Z,24.66
2019-03-17T10:18:45.784Z,24.43
2019-03-17T10:20:49.511Z,24.56
2019-03-17T10:22:53.238Z,24.85
2019-03-17T10:24:56.993Z,24.96
2019-03-17T10:27:00.705Z,24.85
2019-03-17T10:29:04.562Z,24.84
2019-03-17T10:31:08.261Z,24.82
2019-03-17T10:33:11.987Z,24.68
2019-03-17T10:35:15.798Z,24.89
2019-03-17T10:37:19.517Z,24.91
2019-03-17T10:39:23.307Z,24.88
2019-03-17T10:41:27.028Z,24.74
2019-03-17T10:43:30.779Z,24.67
2019-03-17T10:45:34.505Z,24.55
2019-03-17T10:47:38.271Z,24.72
2019-03-17T10:49:42.109Z,24.96
2019-03-17T10:51:45.833Z,25.25
2019-03-17T10:53:49.580Z,25.22
2019-03-17T10:55:53.467Z,25.12
2019-03-17T10:57:57.177Z,25.11
2019-03-17T11:00:00.930Z,25.23
2019-03-17T11:02:04.825Z,25.06
2019-03-17T11:04:08.580Z,25.19
2019-03-17T11:06:12.325Z,25.00
2019-03-17T11:08:16.079Z,24.64
2019-03-17T11:10:19.768Z,24.12
2019-03-17T11:12:23.504Z,23.46
2019-03-17T11:14:27.345Z,23.06
2019-03-17T11:16:31.068Z,22.64
2019-03-17T11:18:34.799Z,22.25
2019-03-17T11:20:38.689Z,22.06
2019-03-17T11:22:42.548Z,21.83
2019-03-17T11:24:46.321Z,21.23
2019-03-17T11:26:50.024Z,20.63
2019-03-17T11:28:53.783Z,20.22
2019-03-17T11:30:59.253Z,19.87
2019-03-17T11:33:02.985Z,19.93
2019-03-17T11:35:07.003Z,20.22
2019-03-17T11:37:10.729Z,20.32
2019-03-17T11:39:14.477Z,20.45
2019-03-17T11:41:18.180Z,20.38
2019-03-17T11:43:22.123Z,20.20
2019-03-17T11:45:25.941Z,20.19
2019-03-17T11:47:29.738Z,20.29
2019-03-17T11:49:33.585Z,20.89
2019-03-17T11:51:37.293Z,21.29
2019-03-17T11:53:41.008Z,21.68
2019-03-17T11:55:44.747Z,22.14
2019-03-17T11:57:48.603Z,22.65
2019-03-17T11:59:52.475Z,22.61
2019-03-17T12:01:56.192Z,22.35
2019-03-17T12:03:59.899Z,22.11
2019-03-17T12:06:03.811Z,21.96
2019-03-17T12:08:07.660Z,21.71
2019-03-17T12:10:12.705Z,21.33
2019-03-17T12:12:16.423Z,20.97
2019-03-17T12:14:20.142Z,20.78
2019-03-17T12:16:23.876Z,20.72
2019-03-17T12:18:27.675Z,20.38
2019-03-17T12:20:31.566Z,20.38
2019-03-17T12:22:35.341Z,20.50
2019-03-17T12:24:39.162Z,20.84
2019-03-17T12:26:43.019Z,20.84
2019-03-17T12:28:46.793Z,21.35
2019-03-17T12:30:50.531Z,22.04
2019-03-17T12:32:54.910Z,22.38
2019-03-17T12:34:58.625Z,22.58
2019-03-17T12:37:02.468Z,22.86
2019-03-17T12:39:07.236Z,23.06
2019-03-17T12:41:10.995Z,22.69
2019-03-17T12:43:14.706Z,22.41
2019-03-17T12:45:18.522Z,22.34
2019-03-17T12:47:22.232Z,22.58
2019-03-17T12:49:25.948Z,22.47
2019-03-17T12:51:29.784Z,22.05
2019-03-17T12:53:33.488Z,21.23
2019-03-17T12:55:37.249Z,20.88
2019-03-17T12:57:41.055Z,20.77
2019-03-17T12:59:44.783Z,20.68
2019-03-17T13:01:48.525Z,20.45
2019-03-17T13:03:52.251Z,20.17
2019-03-17T13:05:56.033Z,19.87
2019-03-17T13:07:59.778Z,19.54
2019-03-17T13:10:14.988Z,19.32
2019-03-17T13:12:09.477Z,19.22
2019-03-17T13:14:13.194Z,19.03
2019-03-17T13:16:16.977Z,18.84
2019-03-17T13:18:20.681Z,18.62
2019-03-17T13:20:24.411Z,18.31
2019-03-17T13:22:28.257Z,18.02
2019-03-17T13:24:31.964Z,17.78
2019-03-17T13:26:35.788Z,17.59
2019-03-17T13:28:39.519Z,17.45
2019-03-17T13:30:43.235Z,17.22
2019-03-17T13:32:47.333Z,17.00
2019-03-17T13:34:51.033Z,16.87
2019-03-17T13:36:54.764Z,16.91
2019-03-17T13:38:58.464Z,17.01
2019-03-17T13:41:02.308Z,17.05
2019-03-17T13:43:06.080Z,17.12
2019-03-17T13:45:10.498Z,17.03
2019-03-17T13:47:14.405Z,16.99
2019-03-17T13:49:18.109Z,16.83
2019-03-17T13:51:21.948Z,16.61
2019-03-17T13:53:25.653Z,16.37
2019-03-17T13:55:29.357Z,16.36
2019-03-17T13:57:33.190Z,16.30
2019-03-17T13:59:36.911Z,16.20
2019-03-17T14:01:40.760Z,16.15
2019-03-17T14:03:44.473Z,16.15
2019-03-17T14:05:48.398Z,16.10
2019-03-17T14:07:52.326Z,16.08
2019-03-17T14:09:56.098Z,15.99
2019-03-17T14:11:59.916Z,15.89
2019-03-17T14:14:03.635Z,15.80
2019-03-17T14:16:07.463Z,15.65
2019-03-17T14:18:11.194Z,15.52
2019-03-17T14:20:16.370Z,15.37
2019-03-17T14:22:20.105Z,15.22
2019-03-17T14:24:23.820Z,15.04
2019-03-17T14:26:27.546Z,14.88
2019-03-17T14:28:31.266Z,14.77
2019-03-17T14:30:34.980Z,14.23
2019-03-17T14:32:38.725Z,13.71
2019-03-17T14:34:42.422Z,13.54
2019-03-17T14:36:46.468Z,13.20
2019-03-17T14:38:50.216Z,12.79
2019-03-17T14:40:57.085Z,12.38
2019-03-17T14:42:59.558Z,11.92
2019-03-17T14:45:03.350Z,11.68
2019-03-17T14:47:07.096Z,11.57
2019-03-17T14:49:10.804Z,11.42
2019-03-17T14:51:14.607Z,11.14
2019-03-17T14:53:18.426Z,10.97
2019-03-17T14:55:22.208Z,10.82
2019-03-17T14:57:26.043Z,10.81
2019-03-17T14:59:29.762Z,10.79
2019-03-17T15:01:33.588Z,10.78
2019-03-17T15:03:37.316Z,10.77
2019-03-17T15:05:41.036Z,10.64
2019-03-17T15:07:44.855Z,10.58
2019-03-17T15:09:48.568Z,10.56
2019-03-17T15:11:52.387Z,10.48
2019-03-17T15:13:56.094Z,10.35
2019-03-17T15:16:03.145Z,10.28
2019-03-17T15:18:05.318Z,10.33
2019-03-17T15:20:11.019Z,10.27
2019-03-17T15:22:14.780Z,10.21
2019-03-17T15:24:18.524Z,10.11
2019-03-17T15:26:22.213Z,9.91
2019-03-17T15:28:25.955Z,9.85
2019-03-17T15:30:29.962Z,9.82
2019-03-17T15:32:33.645Z,9.90
2019-03-17T15:34:37.379Z,10.19
2019-03-17T15:36:41.085Z,10.33
2019-03-17T15:38:44.866Z,10.30
2019-03-17T15:40:48.642Z,10.27
2019-03-17T15:42:52.558Z,10.26
2019-03-17T15:44:56.275Z,10.27
2019-03-17T15:46:59.968Z,10.31
2019-03-17T15:49:03.701Z,10.38
2019-03-17T15:51:19.211Z,10.42
2019-03-17T15:53:12.927Z,10.51
2019-03-17T15:55:16.759Z,10.41
2019-03-17T15:57:20.644Z,10.37
2019-03-17T15:59:24.335Z,10.33
2019-03-17T16:01:28.111Z,10.36
2019-03-17T16:03:31.844Z,10.42
2019-03-17T16:05:35.547Z,10.24
2019-03-17T16:07:42.563Z,10.12
2019-03-17T16:09:44.936Z,10.10
2019-03-17T16:11:48.642Z,10.00
2019-03-17T16:13:52.476Z,9.89
2019-03-17T16:15:56.191Z,9.79
2019-03-17T16:18:00.030Z,9.64
2019-03-17T16:20:04.406Z,9.51
2019-03-17T16:22:08.117Z,9.38
2019-03-17T16:24:11.962Z,9.21
2019-03-17T16:26:15.663Z,9.01
2019-03-17T16:28:19.508Z,8.88
2019-03-17T16:30:23.611Z,8.75
2019-03-17T16:32:27.358Z,8.69
2019-03-17T16:34:31.139Z,8.63
2019-03-17T16:36:34.848Z,8.64
2019-03-17T16:38:38.762Z,8.67
2019-03-17T16:40:42.471Z,8.68
2019-03-17T16:42:46.219Z,8.66
2019-03-17T16:44:49.970Z,8.78
2019-03-17T16:46:53.679Z,8.98
2019-03-17T16:48:57.409Z,9.16
2019-03-17T16:51:01.129Z,9.26
2019-03-17T16:53:04.996Z,9.27
2019-03-17T16:55:11.386Z,9.23
2019-03-17T16:57:14.585Z,9.22
2019-03-17T16:59:18.338Z,9.27
2019-03-17T17:01:22.034Z,9.31
2019-03-17T17:03:25.867Z,9.32
2019-03-17T17:05:29.659Z,9.24
2019-03-17T17:07:33.469Z,9.17
2019-03-17T17:09:37.164Z,9.06
2019-03-17T17:11:40.909Z,9.03
2019-03-17T17:13:44.648Z,9.06
2019-03-17T17:15:48.353Z,9.05
2019-03-17T17:17:52.147Z,8.97
2019-03-17T17:19:55.854Z,8.90
2019-03-17T17:21:59.577Z,8.83
2019-03-17T17:24:03.415Z,8.79
2019-03-17T17:26:07.100Z,8.72
2019-03-17T17:28:10.852Z,8.66
2019-03-17T17:30:16.038Z,8.65
2019-03-17T17:32:19.743Z,8.66
2019-03-17T17:34:23.484Z,8.64
2019-03-17T17:36:27.192Z,8.64
2019-03-17T17:38:30.942Z,8.68
2019-03-17T17:40:34.638Z,8.71
2019-03-17T17:42:38.325Z,8.74
2019-03-17T17:44:42.123Z,8.80
2019-03-17T17:46:45.861Z,8.83
2019-03-17T17:48:49.876Z,8.77
2019-03-17T17:50:53.598Z,8.68
2019-03-17T17:52:57.381Z,8.66
2019-03-17T17:55:01.219Z,8.59
2019-03-17T17:57:05.108Z,8.52
2019-03-17T17:59:08.854Z,8.51
2019-03-17T18:01:12.559Z,8.47
2019-03-17T18:03:16.261Z,8.37
2019-03-17T18:05:19.983Z,8.34
2019-03-17T18:07:23.692Z,8.28
2019-03-17T18:09:27.543Z,8.22
2019-03-17T18:11:31.238Z,8.20
2019-03-17T18:13:35.063Z,8.16
2019-03-17T18:15:38.768Z,8.11
2019-03-17T18:17:42.466Z,8.09
2019-03-17T18:19:46.448Z,8.10
2019-03-17T18:21:50.161Z,8.09
2019-03-17T18:23:53.936Z,8.09
2019-03-17T18:25:57.637Z,8.06
2019-03-17T18:28:01.379Z,8.02
2019-03-17T18:30:06.399Z,7.96
2019-03-17T18:32:10.157Z,7.93
2019-03-17T18:34:13.878Z,7.94
2019-03-17T18:36:17.641Z,7.96
2019-03-17T18:38:21.521Z,7.98
2019-03-17T18:40:25.285Z,7.98
2019-03-17T18:42:33.345Z,7.94
2019-03-17T18:44:34.524Z,7.92
2019-03-17T18:46:38.253Z,7.91
2019-03-17T18:48:42.078Z,7.90
2019-03-17T18:50:45.886Z,7.90
2019-03-17T18:52:49.611Z,7.94
2019-03-17T18:54:53.342Z,7.93
2019-03-17T18:56:57.048Z,7.92
2019-03-17T18:59:00.915Z,7.87
2019-03-17T19:01:04.622Z,7.85
2019-03-17T19:03:08.449Z,7.82
2019-03-17T19:05:12.466Z,7.79
2019-03-17T19:07:16.181Z,7.81
2019-03-17T19:09:20.028Z,7.79
2019-03-17T19:11:23.820Z,7.75
2019-03-17T19:13:27.558Z,7.75
2019-03-17T19:15:31.256Z,7.76
2019-03-17T19:17:35.021Z,7.78
2019-03-17T19:19:38.754Z,7.81
2019-03-17T19:21:42.479Z,7.83
2019-03-17T19:23:46.302Z,7.84
2019-03-17T19:25:50.086Z,7.83
2019-03-17T19:27:53.868Z,7.80
2019-03-17T19:29:57.587Z,7.79
2019-03-17T19:32:01.315Z,7.79
2019-03-17T19:34:05.191Z,7.74
2019-03-17T19:36:08.986Z,7.73
2019-03-17T19:38:12.690Z,7.71
2019-03-17T19:40:16.545Z,7.70
2019-03-17T19:42:20.256Z,7.66
2019-03-17T19:44:23.997Z,7.62
2019-03-17T19:46:27.712Z,7.60
2019-03-17T19:48:31.448Z,7.56
2019-03-17T19:50:35.144Z,7.48
2019-03-17T19:52:38.869Z,7.44
2019-03-17T19:54:42.659Z,7.42
2019-03-17T19:56:46.397Z,7.39
2019-03-17T19:58:50.127Z,7.38
2019-03-17T20:00:53.838Z,7.37
2019-03-17T20:02:57.629Z,7.32
2019-03-17T20:05:01.376Z,7.29
2019-03-17T20:07:05.157Z,7.29
2019-03-17T20:09:08.913Z,7.27
2019-03-17T20:11:12.607Z,7.24
2019-03-17T20:13:16.326Z,7.19
2019-03-17T20:15:20.111Z,7.13
2019-03-17T20:17:23.818Z,7.09
2019-03-17T20:19:28.502Z,7.06
2019-03-17T20:21:32.216Z,7.01
2019-03-17T20:23:35.923Z,6.98
2019-03-17T20:25:39.675Z,6.92
2019-03-17T20:27:43.459Z,6.90
2019-03-17T20:29:47.202Z,6.89
2019-03-17T20:31:51.036Z,6.86
2019-03-17T20:33:54.768Z,6.85
2019-03-17T20:35:58.498Z,6.85
2019-03-17T20:38:02.343Z,6.82
2019-03-17T20:40:06.622Z,6.81
2019-03-17T20:42:10.333Z,6.79
2019-03-17T20:44:14.172Z,6.78
2019-03-17T20:46:17.882Z,6.77
2019-03-17T20:48:21.788Z,6.75
2019-03-17T20:50:25.491Z,6.74
2019-03-17T20:52:29.332Z,6.71
2019-03-17T20:54:33.071Z,6.68
2019-03-17T20:56:36.777Z,6.65
2019-03-17T20:58:40.476Z,6.62
2019-03-17T21:00:44.236Z,6.58
2019-03-17T21:02:48.011Z,6.56
2019-03-17T21:04:51.751Z,6.56
2019-03-17T21:06:55.748Z,6.56
2019-03-17T21:08:59.447Z,6.58
2019-03-17T21:11:03.343Z,6.57
2019-03-17T21:13:07.055Z,6.60
2019-03-17T21:15:11.574Z,6.60
2019-03-17T21:17:15.258Z,6.57
2019-03-17T21:19:19.087Z,6.55
2019-03-17T21:21:22.863Z,6.54
2019-03-17T21:23:26.649Z,6.51
2019-03-17T21:25:30.373Z,6.46
2019-03-17T21:27:34.092Z,6.44
2019-03-17T21:29:37.823Z,6.37
2019-03-17T21:31:41.561Z,6.32
2019-03-17T21:33:45.284Z,6.28
2019-03-17T21:35:49.037Z,6.25
2019-03-17T21:37:52.900Z,6.26
2019-03-17T21:39:56.632Z,6.28
2019-03-17T21:42:00.407Z,6.23
2019-03-17T21:44:04.373Z,6.19
2019-03-17T21:46:08.183Z,6.16
2019-03-17T21:48:11.904Z,6.10
2019-03-17T21:50:16.120Z,6.02
2019-03-17T21:52:19.801Z,5.95
2019-03-17T21:54:23.529Z,5.88
2019-03-17T21:56:27.354Z,5.86
2019-03-17T21:58:31.057Z,5.84
2019-03-17T22:00:34.780Z,5.81
2019-03-17T22:02:38.476Z,5.77
2019-03-17T22:04:42.300Z,5.75
2019-03-17T22:06:46.003Z,5.73
2019-03-17T22:08:49.711Z,5.77
2019-03-17T22:10:53.521Z,5.80
2019-03-17T22:12:57.294Z,5.82
2019-03-17T22:15:01.019Z,5.81
2019-03-17T22:17:04.733Z,5.79
2019-03-17T22:19:08.434Z,5.82
2019-03-17T22:21:12.270Z,5.83
2019-03-17T22:23:15.970Z,5.83
2019-03-17T22:25:19.701Z,5.83
2019-03-17T22:27:23.397Z,5.81
2019-03-17T22:29:27.083Z,5.79
2019-03-17T22:31:30.951Z,5.78
2019-03-17T22:33:34.733Z,5.79
2019-03-17T22:35:38.484Z,5.80
2019-03-17T22:37:42.434Z,5.84
2019-03-17T22:39:46.192Z,5.84
2019-03-17T22:41:50.079Z,5.85
2019-03-17T22:43:53.899Z,5.81
2019-03-17T22:45:57.736Z,5.78
2019-03-17T22:48:01.639Z,5.75
2019-03-17T22:50:05.909Z,5.73
2019-03-17T22:52:09.606Z,5.71
2019-03-17T22:54:13.308Z,5.67
2019-03-17T22:56:17.061Z,5.67
2019-03-17T22:58:20.763Z,5.65
2019-03-17T23:00:38.266Z,5.63
2019-03-17T23:02:41.964Z,5.59
2019-03-17T23:04:45.659Z,5.54
2019-03-17T23:06:49.418Z,5.48
2019-03-17T23:08:53.183Z,5.43
2019-03-17T23:10:56.916Z,5.37
2019-03-17T23:13:00.611Z,5.29
2019-03-17T23:15:04.621Z,5.23
2019-03-17T23:17:08.446Z,5.20
2019-03-17T23:19:12.176Z,5.18
2019-03-17T23:21:16.061Z,5.24
2019-03-17T23:23:19.758Z,5.31
2019-03-17T23:25:23.643Z,5.37
2019-03-17T23:27:27.370Z,5.40
2019-03-17T23:29:31.075Z,5.39
2019-03-17T23:31:34.907Z,5.35
2019-03-17T23:33:38.710Z,5.29
2019-03-17T23:35:42.403Z,5.24
2019-03-17T23:37:46.171Z,5.20
2019-03-17T23:39:49.998Z,5.17
2019-03-17T23:41:53.710Z,5.14
2019-03-17T23:43:57.441Z,5.11
2019-03-17T23:46:01.151Z,5.13
2019-03-17T23:48:04.962Z,5.16
2019-03-17T23:50:08.852Z,5.22
2019-03-17T23:52:12.559Z,5.22
2019-03-17T23:54:16.412Z,5.16
2019-03-17T23:56:20.103Z,4.95
2019-03-17T23:58:23.952Z,4.71
